Mary Magdalene — LZH2326 — position and weather

sailwx.info

Track history (hours):
 
Tides and Currents Weather Stations Pressure Air Temp Water Temp Dewpoint Dewpoint Depression Visibility Wind Speed Wind Dir Waves Ship Positions

Mary Magdalene

Last reported at 2017-Aug-22 08:50 UTC. Time now 2017-Sep-21 05:23 UTC.
Position N 37°22' E 024°51'.
Warning: this ship's position is 29 days out of date.

Type: Pleasure craft. MMSI: 207823260.

Date/timePositionNaut miles runAvg speedWind from/ knotsBaromVisibWave heightAir tempDewpointWater temp
2017-Aug-22 08:50N 37°22' E 024°51'2 5.2
2017-Aug-22 08:27N 37°20' E 024°49'2 5.2
2017-Aug-22 08:00N 37°18' E 024°48'  
2017-Aug-16 13:27N 37°48' E 023°45'4 7.9
2017-Aug-16 13:00N 37°51' E 023°43'4 7.2
2017-Aug-16 12:27N 37°55' E 023°40'1 0.1
2017-Aug-15 09:26N 37°56' E 023°39'0 0.2
2017-Aug-15 09:00N 37°56' E 023°39'3 5.0
2017-Aug-15 08:30N 37°54' E 023°37'  
Track history (hours):
 
Tides and Currents Weather Stations Pressure Air Temp Water Temp Dewpoint Dewpoint Depression Visibility Wind Speed Wind Dir Waves Ship Positions

Mary Magdalene

Last reported at 2017-Aug-22 08:50 UTC. Time now 2017-Sep-21 05:23 UTC.
Position N 37°22' E 024°51'.
Warning: this ship's position is 29 days out of date.

Type: Pleasure craft. MMSI: 207823260.

Date/timePositionNaut miles runAvg speedWind from/ knotsBaromVisibWave heightAir tempDewpointWater temp
2017-Aug-22 08:50N 37°22' E 024°51'2 5.2
2017-Aug-22 08:27N 37°20' E 024°49'2 5.2
2017-Aug-22 08:00N 37°18' E 024°48'  
2017-Aug-16 13:27N 37°48' E 023°45'4 7.9
2017-Aug-16 13:00N 37°51' E 023°43'4 7.2
2017-Aug-16 12:27N 37°55' E 023°40'1 0.1
2017-Aug-15 09:26N 37°56' E 023°39'0 0.2
2017-Aug-15 09:00N 37°56' E 023°39'3 5.0
2017-Aug-15 08:30N 37°54' E 023°37'  

Dump ship's entire track history